createdAt,value
2018-06-29T00:00:02.900Z,18.26
2018-06-29T00:02:31.793Z,18.15
2018-06-29T00:05:00.123Z,18.05
2018-06-29T00:07:27.860Z,17.86
2018-06-29T00:09:56.167Z,17.64
2018-06-29T00:12:25.074Z,17.45
2018-06-29T00:14:53.413Z,17.33
2018-06-29T00:17:21.730Z,17.32
2018-06-29T00:19:50.049Z,17.30
2018-06-29T00:22:18.364Z,17.20
2018-06-29T00:24:46.846Z,17.17
2018-06-29T00:27:15.170Z,17.14
2018-06-29T00:29:42.926Z,17.15
2018-06-29T00:32:11.827Z,17.11
2018-06-29T00:34:40.162Z,17.05
2018-06-29T00:37:08.493Z,17.05
2018-06-29T00:39:36.816Z,17.08
2018-06-29T00:42:04.577Z,17.25
2018-06-29T00:44:33.480Z,17.28
2018-06-29T00:47:01.816Z,17.36
2018-06-29T00:49:29.566Z,17.53
2018-06-29T00:51:57.897Z,17.67
2018-06-29T00:54:27.939Z,17.70
2018-06-29T00:56:55.240Z,17.69
2018-06-29T00:59:23.582Z,17.73
2018-06-29T01:01:51.921Z,17.78
2018-06-29T01:04:19.782Z,17.83
2018-06-29T01:06:48.571Z,17.82
2018-06-29T01:09:16.891Z,17.69
2018-06-29T01:11:44.626Z,17.50
2018-06-29T01:14:13.537Z,17.33
2018-06-29T01:16:41.859Z,17.09
2018-06-29T01:19:10.172Z,17.00
2018-06-29T01:21:38.540Z,16.93
2018-06-29T01:24:06.961Z,16.87
2018-06-29T01:26:34.737Z,16.94
2018-06-29T01:29:03.063Z,17.16
2018-06-29T01:31:31.365Z,17.34
2018-06-29T01:34:00.264Z,17.37
2018-06-29T01:36:28.001Z,17.37
2018-06-29T01:38:56.892Z,17.29
2018-06-29T01:41:25.258Z,17.04
2018-06-29T01:43:53.778Z,16.87
2018-06-29T01:46:22.093Z,16.85
2018-06-29T01:48:49.850Z,16.98
2018-06-29T01:51:18.735Z,17.16
2018-06-29T01:53:46.485Z,17.25
2018-06-29T01:56:14.799Z,17.31
2018-06-29T01:58:43.472Z,17.34
2018-06-29T02:01:13.145Z,17.40
2018-06-29T02:03:40.886Z,17.51
2018-06-29T02:06:09.779Z,17.60
2018-06-29T02:08:39.086Z,17.69
2018-06-29T02:11:07.399Z,17.73
2018-06-29T02:13:35.708Z,17.78
2018-06-29T02:16:04.097Z,17.78
2018-06-29T02:18:32.415Z,17.75
2018-06-29T02:21:00.153Z,17.77
2018-06-29T02:23:29.044Z,17.77
2018-06-29T02:25:57.376Z,17.74
2018-06-29T02:28:25.722Z,17.61
2018-06-29T02:30:53.582Z,17.40
2018-06-29T02:33:21.854Z,17.28
2018-06-29T02:35:50.752Z,17.30
2018-06-29T02:38:19.074Z,17.46
2018-06-29T02:40:47.097Z,17.62
2018-06-29T02:43:15.120Z,17.74
2018-06-29T02:45:43.634Z,17.75
2018-06-29T02:48:12.331Z,17.78
2018-06-29T02:50:40.062Z,17.79
2018-06-29T02:53:08.957Z,17.84
2018-06-29T02:55:37.272Z,17.82
2018-06-29T02:58:05.020Z,17.82
2018-06-29T03:00:33.336Z,17.73
2018-06-29T03:03:02.233Z,17.72
2018-06-29T03:05:30.556Z,17.73
2018-06-29T03:07:58.286Z,17.76
2018-06-29T03:10:26.604Z,17.77
2018-06-29T03:12:54.925Z,17.75
2018-06-29T03:15:23.242Z,17.77
2018-06-29T03:17:51.569Z,17.74
2018-06-29T03:20:20.232Z,17.73
2018-06-29T03:22:48.881Z,17.72
2018-06-29T03:25:16.624Z,17.74
2018-06-29T03:27:44.930Z,17.79
2018-06-29T03:30:13.287Z,17.83
2018-06-29T03:32:42.186Z,17.87
2018-06-29T03:35:10.496Z,17.93
2018-06-29T03:37:38.236Z,17.99
2018-06-29T03:40:06.562Z,18.08
2018-06-29T03:42:34.902Z,18.15
2018-06-29T03:45:03.790Z,18.18
2018-06-29T03:47:32.106Z,18.24
2018-06-29T03:50:00.437Z,18.31
2018-06-29T03:52:28.753Z,18.44
2018-06-29T03:54:57.072Z,18.53
2018-06-29T03:57:24.809Z,18.60
2018-06-29T03:59:53.708Z,18.65
2018-06-29T04:02:22.028Z,18.76
2018-06-29T04:04:50.349Z,18.93
2018-06-29T04:07:18.091Z,19.10
2018-06-29T04:09:47.003Z,19.27
2018-06-29T04:12:15.320Z,19.36
2018-06-29T04:14:43.053Z,19.44
2018-06-29T04:17:11.368Z,19.49
2018-06-29T04:19:39.681Z,19.51
2018-06-29T04:22:08.580Z,19.44
2018-06-29T04:24:36.315Z,19.29
2018-06-29T04:27:04.626Z,19.27
2018-06-29T04:29:32.937Z,19.32
2018-06-29T04:32:01.866Z,19.41
2018-06-29T04:34:30.173Z,19.53
2018-06-29T04:36:57.916Z,19.63
2018-06-29T04:39:26.816Z,19.72
2018-06-29T04:41:54.559Z,19.78
2018-06-29T04:44:22.866Z,19.84
2018-06-29T04:46:51.766Z,19.88
2018-06-29T04:49:19.522Z,19.85
2018-06-29T04:51:48.392Z,19.87
2018-06-29T04:54:16.697Z,19.69
2018-06-29T04:56:44.497Z,19.63
2018-06-29T04:59:13.372Z,19.61
2018-06-29T05:01:41.136Z,19.55
2018-06-29T05:04:09.956Z,19.54
2018-06-29T05:06:37.711Z,19.59
2018-06-29T05:09:06.612Z,19.72
2018-06-29T05:11:34.339Z,19.83
2018-06-29T05:14:02.655Z,19.93
2018-06-29T05:16:31.559Z,19.97
2018-06-29T05:19:07.726Z,20.04
2018-06-29T05:21:36.274Z,20.09
2018-06-29T05:24:04.991Z,20.18
2018-06-29T05:26:33.289Z,20.28
2018-06-29T05:29:01.037Z,20.32
2018-06-29T05:31:29.948Z,20.33
2018-06-29T05:33:58.301Z,20.36
2018-06-29T05:36:26.056Z,20.49
2018-06-29T05:38:54.376Z,20.55
2018-06-29T05:41:23.281Z,20.46
2018-06-29T05:43:51.581Z,20.43
2018-06-29T05:46:19.966Z,20.57
2018-06-29T05:48:48.248Z,20.63
2018-06-29T05:51:16.557Z,20.65
2018-06-29T05:53:44.849Z,20.74
2018-06-29T05:56:12.610Z,20.84
2018-06-29T05:58:40.925Z,21.04
2018-06-29T06:01:09.243Z,21.21
2018-06-29T06:03:38.162Z,21.38
2018-06-29T06:06:05.897Z,21.48
2018-06-29T06:08:34.220Z,21.47
2018-06-29T06:11:03.117Z,21.49
2018-06-29T06:13:30.859Z,21.52
2018-06-29T06:15:59.801Z,21.61
2018-06-29T06:18:28.070Z,21.68
2018-06-29T06:20:55.888Z,21.73
2018-06-29T06:23:24.700Z,21.81
2018-06-29T06:25:52.439Z,21.89
2018-06-29T06:28:20.770Z,21.98
2018-06-29T06:30:49.087Z,22.06
2018-06-29T06:33:17.980Z,22.17
2018-06-29T06:35:46.321Z,22.30
2018-06-29T06:38:14.056Z,22.43
2018-06-29T06:40:42.959Z,22.59
2018-06-29T06:43:11.336Z,22.77
2018-06-29T06:45:39.659Z,22.94
2018-06-29T06:48:07.992Z,23.08
2018-06-29T06:50:36.332Z,23.14
2018-06-29T06:53:04.646Z,23.19
2018-06-29T06:55:32.396Z,23.22
2018-06-29T06:58:00.710Z,23.23
2018-06-29T07:00:29.613Z,23.23
2018-06-29T07:02:57.371Z,23.24
2018-06-29T07:05:26.257Z,23.23
2018-06-29T07:07:54.573Z,23.25
2018-06-29T07:10:22.892Z,23.26
2018-06-29T07:12:51.277Z,23.27
2018-06-29T07:15:18.959Z,23.32
2018-06-29T07:17:47.858Z,23.33
2018-06-29T07:20:15.596Z,23.33
2018-06-29T07:22:44.500Z,23.28
2018-06-29T07:25:12.818Z,23.27
2018-06-29T07:27:41.142Z,23.22
2018-06-29T07:30:09.492Z,23.11
2018-06-29T07:32:37.795Z,22.99
2018-06-29T07:35:05.537Z,22.84
2018-06-29T07:37:33.887Z,22.72
2018-06-29T07:40:02.790Z,22.61
2018-06-29T07:42:30.542Z,22.53
2018-06-29T07:44:59.456Z,22.46
2018-06-29T07:47:27.776Z,22.34
2018-06-29T07:49:56.097Z,22.20
2018-06-29T07:52:23.834Z,22.12
2018-06-29T07:54:52.158Z,22.04
2018-06-29T07:57:21.049Z,21.96
2018-06-29T07:59:48.801Z,21.88
2018-06-29T08:02:17.109Z,21.77
2018-06-29T08:04:46.011Z,21.67
2018-06-29T08:07:13.747Z,21.56
2018-06-29T08:09:42.061Z,21.47
2018-06-29T08:12:10.964Z,21.38
2018-06-29T08:14:39.968Z,21.33
2018-06-29T08:17:07.701Z,21.32
2018-06-29T08:19:36.015Z,21.32
2018-06-29T08:22:04.733Z,21.32
2018-06-29T08:24:32.685Z,21.28
2018-06-29T08:27:00.999Z,21.27
2018-06-29T08:29:29.904Z,21.25
2018-06-29T08:31:58.217Z,21.19
2018-06-29T08:34:25.984Z,21.13
2018-06-29T08:36:54.837Z,21.06
2018-06-29T08:39:23.787Z,21.00
2018-06-29T08:41:52.096Z,20.96
2018-06-29T08:44:20.027Z,20.92
2018-06-29T08:46:48.809Z,20.92
2018-06-29T08:49:17.376Z,20.91
2018-06-29T08:51:45.701Z,20.91
2018-06-29T08:54:13.436Z,20.95
2018-06-29T08:56:42.350Z,20.96
2018-06-29T08:59:10.670Z,20.95
2018-06-29T09:01:40.871Z,20.91
2018-06-29T09:04:07.880Z,20.84
2018-06-29T09:06:35.613Z,20.75
2018-06-29T09:09:05.115Z,20.73
2018-06-29T09:11:32.271Z,20.75
2018-06-29T09:14:00.596Z,20.78
2018-06-29T09:16:28.921Z,20.80
2018-06-29T09:18:57.428Z,20.82
2018-06-29T09:21:26.126Z,20.85
2018-06-29T09:23:54.452Z,20.83
2018-06-29T09:26:22.526Z,20.77
2018-06-29T09:28:51.433Z,20.75
2018-06-29T09:31:19.164Z,20.75
2018-06-29T09:33:47.474Z,20.74
2018-06-29T09:36:16.418Z,20.70
2018-06-29T09:38:44.689Z,20.63
2018-06-29T09:41:13.032Z,20.55
2018-06-29T09:43:41.364Z,20.50
2018-06-29T09:46:09.687Z,20.47
2018-06-29T09:48:38.019Z,20.45
2018-06-29T09:51:06.356Z,20.46
2018-06-29T09:53:34.093Z,20.47
2018-06-29T09:56:03.223Z,20.45
2018-06-29T09:58:31.319Z,20.44
2018-06-29T10:00:59.084Z,20.37
2018-06-29T10:03:27.948Z,20.33
2018-06-29T10:05:55.696Z,20.29
2018-06-29T10:08:24.074Z,20.27
2018-06-29T10:10:52.973Z,20.27
2018-06-29T10:13:21.287Z,20.31
2018-06-29T10:15:49.609Z,20.33
2018-06-29T10:18:17.962Z,20.33
2018-06-29T10:20:46.284Z,20.38
2018-06-29T10:23:14.016Z,20.41
2018-06-29T10:25:42.347Z,20.42
2018-06-29T10:28:11.340Z,20.41
2018-06-29T10:30:39.578Z,20.42
2018-06-29T10:33:07.932Z,20.38
2018-06-29T10:35:36.528Z,20.35
2018-06-29T10:38:04.832Z,20.33
2018-06-29T10:40:32.575Z,20.29
2018-06-29T10:43:01.527Z,20.25
2018-06-29T10:45:29.334Z,20.28
2018-06-29T10:47:58.243Z,20.34
2018-06-29T10:50:26.568Z,20.46
2018-06-29T10:52:54.379Z,20.53
2018-06-29T10:55:23.299Z,20.60
2018-06-29T10:57:51.634Z,20.64
2018-06-29T11:00:20.220Z,20.61
2018-06-29T11:02:48.776Z,20.55
2018-06-29T11:05:17.690Z,20.53
2018-06-29T11:07:45.705Z,20.48
2018-06-29T11:10:13.936Z,20.46
2018-06-29T11:12:42.261Z,20.40
2018-06-29T11:15:16.143Z,20.29
2018-06-29T11:17:43.904Z,20.21
2018-06-29T11:20:12.223Z,20.14
2018-06-29T11:22:41.167Z,20.03
2018-06-29T11:25:09.693Z,20.02
2018-06-29T11:27:37.967Z,19.97
2018-06-29T11:30:06.923Z,20.00
2018-06-29T11:32:36.190Z,20.07
2018-06-29T11:35:04.216Z,20.09
2018-06-29T11:37:32.777Z,20.13
2018-06-29T11:40:01.104Z,20.23
2018-06-29T11:42:30.146Z,20.30
2018-06-29T11:44:58.423Z,20.35
2018-06-29T11:47:26.902Z,20.33
2018-06-29T11:49:54.645Z,20.28
2018-06-29T11:52:22.966Z,20.28
2018-06-29T11:54:53.536Z,20.28
2018-06-29T11:57:22.983Z,20.31
2018-06-29T11:59:51.305Z,20.31
2018-06-29T12:02:19.106Z,20.34
2018-06-29T12:04:48.488Z,20.48
2018-06-29T12:07:16.925Z,20.70
2018-06-29T12:10:01.361Z,20.72
2018-06-29T12:15:26.753Z,20.53
2018-06-29T12:17:59.444Z,20.55
2018-06-29T12:20:30.406Z,20.57
2018-06-29T12:23:00.935Z,20.57
2018-06-29T12:25:30.188Z,20.61
2018-06-29T12:28:00.708Z,20.59
2018-06-29T12:30:29.837Z,20.46
2018-06-29T12:32:58.183Z,20.31
2018-06-29T12:35:26.503Z,20.23
2018-06-29T12:37:54.299Z,20.20
2018-06-29T12:40:23.166Z,20.16
2018-06-29T12:42:51.472Z,20.10
2018-06-29T12:45:19.242Z,20.13
2018-06-29T12:47:47.570Z,20.15
2018-06-29T12:50:15.890Z,20.15
2018-06-29T12:52:44.203Z,20.16
2018-06-29T12:55:13.114Z,20.20
2018-06-29T12:57:40.861Z,20.17
2018-06-29T13:00:09.649Z,20.20
2018-06-29T13:02:40.371Z,20.23
2018-06-29T13:05:08.120Z,20.33
2018-06-29T13:07:37.019Z,20.45
2018-06-29T13:10:05.339Z,20.53
2018-06-29T13:12:33.653Z,20.62
2018-06-29T13:15:01.970Z,20.64
2018-06-29T13:17:30.299Z,20.60
2018-06-29T13:19:59.071Z,20.52
2018-06-29T13:22:27.468Z,20.54
2018-06-29T13:24:55.311Z,20.51
2018-06-29T13:27:24.109Z,20.55
2018-06-29T13:29:52.436Z,20.55
2018-06-29T13:32:20.176Z,20.49
2018-06-29T13:34:48.496Z,20.47
2018-06-29T13:37:17.408Z,20.38
2018-06-29T13:39:45.143Z,20.32
2018-06-29T13:42:17.855Z,20.34
2018-06-29T13:44:45.211Z,20.38
2018-06-29T13:47:12.969Z,20.68
2018-06-29T13:49:41.910Z,20.85
2018-06-29T13:52:09.654Z,20.87
2018-06-29T13:54:38.780Z,20.75
2018-06-29T13:57:06.878Z,20.69
2018-06-29T13:59:35.200Z,20.85
2018-06-29T14:02:03.518Z,20.99
2018-06-29T14:04:31.841Z,21.02
2018-06-29T14:07:00.161Z,21.09
2018-06-29T14:09:28.479Z,21.36
2018-06-29T14:11:56.512Z,21.38
2018-06-29T14:14:24.553Z,21.35
2018-06-29T14:16:53.458Z,21.58
2018-06-29T14:19:21.194Z,21.59
2018-06-29T14:21:50.098Z,21.54
2018-06-29T14:24:21.305Z,21.37
2018-06-29T14:26:47.479Z,21.32
2018-06-29T14:29:15.791Z,21.34
2018-06-29T14:31:44.113Z,21.35
2018-06-29T14:34:12.434Z,21.26
2018-06-29T14:36:40.186Z,21.16
2018-06-29T14:39:09.090Z,21.14
2018-06-29T14:41:36.846Z,20.98
2018-06-29T14:44:05.745Z,20.81
2018-06-29T14:46:33.496Z,20.67
2018-06-29T14:49:02.550Z,21.19
2018-06-29T14:51:30.863Z,21.93
2018-06-29T14:53:59.181Z,22.46
2018-06-29T14:56:27.498Z,22.87
2018-06-29T14:58:55.849Z,23.18
2018-06-29T15:01:23.609Z,23.23
2018-06-29T15:03:52.747Z,23.09
2018-06-29T15:06:20.488Z,22.93
2018-06-29T15:08:49.392Z,22.72
2018-06-29T15:11:17.127Z,22.59
2018-06-29T15:13:46.033Z,22.35
2018-06-29T15:16:14.349Z,22.04
2018-06-29T15:18:42.690Z,21.72
2018-06-29T15:21:11.002Z,21.53
2018-06-29T15:23:39.407Z,21.43
2018-06-29T15:26:07.141Z,21.34
2018-06-29T15:28:35.464Z,21.31
2018-06-29T15:31:04.372Z,21.22
2018-06-29T15:33:32.094Z,21.18
2018-06-29T15:36:00.423Z,21.32
2018-06-29T15:38:29.324Z,21.71
2018-06-29T15:40:57.652Z,21.77
2018-06-29T15:43:26.005Z,21.68
2018-06-29T15:45:54.322Z,21.54
2018-06-29T15:48:22.722Z,21.37
2018-06-29T15:50:51.225Z,21.19
2018-06-29T15:53:19.528Z,21.02
2018-06-29T15:55:47.914Z,20.89
2018-06-29T15:58:16.224Z,20.82
2018-06-29T16:00:44.601Z,20.64
2018-06-29T16:03:12.945Z,20.51
2018-06-29T16:05:40.792Z,20.41
2018-06-29T16:08:09.694Z,20.23
2018-06-29T16:10:37.429Z,20.16
2018-06-29T16:13:06.436Z,20.08
2018-06-29T16:15:34.972Z,19.98
2018-06-29T16:18:02.728Z,19.95
2018-06-29T16:20:32.949Z,19.94
2018-06-29T16:23:00.690Z,19.96
2018-06-29T16:25:29.479Z,20.00
2018-06-29T16:27:58.474Z,20.01
2018-06-29T16:30:26.391Z,20.02
2018-06-29T16:32:54.553Z,20.06
2018-06-29T16:35:23.476Z,20.09
2018-06-29T16:37:51.801Z,20.26
2018-06-29T16:40:20.381Z,20.44
2018-06-29T16:42:48.743Z,20.87
2018-06-29T16:45:17.799Z,20.93
2018-06-29T16:47:46.137Z,20.80
2018-06-29T16:50:14.463Z,20.58
2018-06-29T16:52:42.227Z,20.41
2018-06-29T16:55:11.135Z,20.27
2018-06-29T16:57:39.444Z,20.10
2018-06-29T17:00:07.822Z,19.93
2018-06-29T17:02:35.571Z,19.86
2018-06-29T17:05:03.946Z,19.83
2018-06-29T17:07:32.836Z,19.77
2018-06-29T17:10:01.244Z,19.72
2018-06-29T17:12:29.633Z,19.68
2018-06-29T17:14:57.951Z,19.61
2018-06-29T17:17:26.297Z,19.59
2018-06-29T17:19:54.727Z,19.61
2018-06-29T17:22:23.009Z,19.59
2018-06-29T17:24:51.336Z,19.58
2018-06-29T17:27:21.420Z,19.63
2018-06-29T17:29:48.675Z,19.67
2018-06-29T17:32:16.992Z,19.72
2018-06-29T17:34:45.673Z,19.71
2018-06-29T17:37:18.784Z,19.66
2018-06-29T17:39:47.328Z,19.62
2018-06-29T17:42:15.682Z,19.54
2018-06-29T17:44:43.429Z,19.52
2018-06-29T17:47:17.839Z,19.48
2018-06-29T17:49:45.573Z,19.44
2018-06-29T17:52:14.506Z,19.42
2018-06-29T17:54:42.850Z,19.38
2018-06-29T17:57:11.429Z,19.34
2018-06-29T17:59:42.749Z,19.27
2018-06-29T18:02:11.174Z,19.20
2018-06-29T18:04:39.496Z,19.13
2018-06-29T18:07:08.597Z,19.08
2018-06-29T18:09:36.714Z,19.02
2018-06-29T18:12:05.253Z,18.96
2018-06-29T18:14:33.581Z,18.86
2018-06-29T18:17:01.335Z,18.78
2018-06-29T18:19:29.654Z,18.78
2018-06-29T18:21:57.985Z,18.78
2018-06-29T18:24:26.320Z,18.74
2018-06-29T18:26:55.214Z,18.75
2018-06-29T18:29:23.617Z,18.73
2018-06-29T18:31:51.957Z,18.73
2018-06-29T18:34:20.293Z,18.65
2018-06-29T18:36:48.820Z,18.54
2018-06-29T18:39:17.101Z,18.44
2018-06-29T18:41:44.842Z,18.43
2018-06-29T18:44:13.755Z,18.44
2018-06-29T18:46:47.414Z,18.40
2018-06-29T18:49:15.740Z,18.37
2018-06-29T18:51:43.493Z,18.29
2018-06-29T18:54:12.397Z,18.26
2018-06-29T18:56:40.767Z,18.26
2018-06-29T18:59:08.619Z,18.23
2018-06-29T19:01:40.753Z,18.17
2018-06-29T19:04:09.069Z,18.12
2018-06-29T19:06:38.570Z,18.06
2018-06-29T19:09:10.096Z,17.98
2018-06-29T19:11:38.443Z,17.92
2018-06-29T19:14:06.794Z,17.88
2018-06-29T19:16:35.146Z,17.85
2018-06-29T19:19:13.541Z,17.80
2018-06-29T19:21:41.889Z,17.78
2018-06-29T19:24:10.284Z,17.78
2018-06-29T19:26:38.598Z,17.76
2018-06-29T19:29:06.918Z,17.76
2018-06-29T19:31:34.688Z,17.76
2018-06-29T19:34:03.712Z,17.76
2018-06-29T19:36:32.090Z,17.71
2018-06-29T19:39:01.015Z,17.68
2018-06-29T19:41:29.302Z,17.63
2018-06-29T19:43:57.644Z,17.61
2018-06-29T19:46:25.387Z,17.59
2018-06-29T19:48:54.301Z,17.52
2018-06-29T19:51:22.116Z,17.47
2018-06-29T19:53:51.013Z,17.42
2018-06-29T19:56:25.238Z,17.43
2018-06-29T19:58:53.729Z,17.40
2018-06-29T20:01:21.426Z,17.36
2018-06-29T20:03:49.746Z,17.36
2018-06-29T20:06:18.763Z,17.33
2018-06-29T20:08:47.113Z,17.36
2018-06-29T20:11:15.982Z,17.33
2018-06-29T20:13:44.280Z,17.31
2018-06-29T20:16:12.615Z,17.27
2018-06-29T20:18:40.952Z,17.23
2018-06-29T20:21:08.695Z,17.22
2018-06-29T20:23:37.618Z,17.21
2018-06-29T20:26:06.120Z,17.19
2018-06-29T20:28:33.850Z,17.14
2018-06-29T20:31:02.759Z,17.19
2018-06-29T20:33:31.123Z,17.23
2018-06-29T20:35:59.495Z,17.26
2018-06-29T20:38:27.824Z,17.27
2018-06-29T20:40:56.181Z,17.27
2018-06-29T20:43:23.995Z,17.28
2018-06-29T20:45:52.898Z,17.27
2018-06-29T20:48:21.228Z,17.28
2018-06-29T20:50:49.537Z,17.26
2018-06-29T20:53:17.859Z,17.24
2018-06-29T20:55:46.668Z,17.22
2018-06-29T20:58:16.953Z,17.21
2018-06-29T21:00:45.060Z,17.21
2018-06-29T21:03:15.528Z,17.22
2018-06-29T21:05:43.853Z,17.21
2018-06-29T21:08:12.204Z,17.23
2018-06-29T21:10:40.581Z,17.26
2018-06-29T21:13:09.013Z,17.29
2018-06-29T21:15:40.076Z,17.28
2018-06-29T21:18:09.598Z,17.26
2018-06-29T21:20:37.545Z,17.25
2018-06-29T21:23:06.471Z,17.24
2018-06-29T21:25:34.792Z,17.22
2018-06-29T21:28:03.121Z,17.16
2018-06-29T21:30:31.446Z,17.10
2018-06-29T21:32:59.179Z,17.08
2018-06-29T21:35:28.078Z,17.05
2018-06-29T21:37:55.814Z,17.04
2018-06-29T21:40:24.711Z,17.05
2018-06-29T21:42:52.529Z,17.06
2018-06-29T21:45:21.356Z,17.07
2018-06-29T21:47:49.095Z,17.07
2018-06-29T21:50:17.992Z,17.09
2018-06-29T21:52:45.768Z,17.12
2018-06-29T21:55:14.632Z,17.11
2018-06-29T21:57:42.956Z,17.08
2018-06-29T22:00:10.705Z,17.05
2018-06-29T22:02:39.637Z,17.03
2018-06-29T22:05:07.957Z,16.99
2018-06-29T22:07:36.278Z,16.96
2018-06-29T22:10:04.602Z,16.96
2018-06-29T22:12:32.917Z,16.92
2018-06-29T22:15:00.690Z,16.89
2018-06-29T22:17:29.011Z,16.88
2018-06-29T22:19:57.438Z,16.89
2018-06-29T22:22:26.349Z,16.87
2018-06-29T22:24:54.650Z,16.85
2018-06-29T22:27:22.405Z,16.82
2018-06-29T22:29:51.299Z,16.81
2018-06-29T22:32:19.726Z,16.80
2018-06-29T22:34:48.030Z,16.79
2018-06-29T22:37:15.787Z,16.77
2018-06-29T22:39:44.107Z,16.76
2018-06-29T22:42:13.012Z,16.76
2018-06-29T22:44:41.325Z,16.76
2018-06-29T22:47:09.660Z,16.76
2018-06-29T22:49:38.131Z,16.75
2018-06-29T22:52:05.873Z,16.75
2018-06-29T22:54:34.456Z,16.76
2018-06-29T22:57:02.781Z,16.76
2018-06-29T22:59:31.100Z,16.74
2018-06-29T23:02:00.186Z,16.74
2018-06-29T23:04:28.413Z,16.75
2018-06-29T23:06:56.150Z,16.70
2018-06-29T23:09:25.053Z,16.70
2018-06-29T23:11:53.374Z,16.69
2018-06-29T23:14:22.482Z,16.69
2018-06-29T23:16:51.031Z,16.68
2018-06-29T23:19:18.534Z,16.68
2018-06-29T23:21:46.847Z,16.63
2018-06-29T23:24:15.750Z,16.59
2018-06-29T23:26:49.304Z,16.59
2018-06-29T23:29:17.416Z,16.60
2018-06-29T23:31:46.703Z,16.60
2018-06-29T23:34:15.539Z,16.61
2018-06-29T23:36:43.275Z,16.58
2018-06-29T23:39:11.860Z,16.55
2018-06-29T23:41:40.561Z,16.52
2018-06-29T23:44:08.883Z,16.50
2018-06-29T23:46:37.208Z,16.48
2018-06-29T23:49:05.526Z,16.47
2018-06-29T23:51:33.841Z,16.48
2018-06-29T23:54:01.596Z,16.47
2018-06-29T23:56:30.042Z,16.43
2018-06-29T23:58:58.934Z,16.44
